Time;durP1;ratioP1;P1;durP2;ratioP2;P2;SDS_P1;SDS_P2;PMS_P1;PMS_P2;Temp;Humidity;BMP_temperature;BMP_pressure;BME280_temperature;BME280_humidity;BME280_pressure;Samples;Min_cycle;Max_cycle;Signal;HPM_P1;HPM_P2
2024/02/26 00:00:25;;;;;;;;;;;;;;;6.10;95.51;96093.41;7397176;19;1020;-75
2024/02/26 00:02:56;;;;;;;;;;;;;;;6.13;96.27;96096.78;7397586;19;983;-65
2024/02/26 00:05:25;;;;;;;;;;;;;;;6.03;94.43;96095.28;7397574;19;1032;-67
2024/02/26 00:07:53;;;;;;;;;;;;;;;6.04;95.14;96095.28;7396974;19;1013;-76
2024/02/26 00:10:21;;;;;;;;;;;;;;;6.05;93.90;96094.38;7397169;19;1780;-68
2024/02/26 00:12:50;;;;;;;;;;;;;;;6.05;93.75;96101.34;7397194;19;1662;-67
2024/02/26 00:15:18;;;;;;;;;;;;;;;5.98;93.91;96092.81;7395526;19;1857;-77
2024/02/26 00:17:47;;;;;;;;;;;;;;;6.04;94.06;96089.22;7397093;19;1855;-67
2024/02/26 00:20:18;;;;;;;;;;;;;;;6.02;94.22;96089.25;7397218;19;1960;-67
2024/02/26 00:22:46;;;;;;;;;;;;;;;6.13;95.02;96081.19;7396631;19;1021;-68
2024/02/26 00:25:15;;;;;;;;;;;;;;;6.09;94.39;96084.78;7396940;19;1911;-73
2024/02/26 00:27:44;;;;;;;;;;;;;;;5.99;96.00;96078.09;7396670;19;965;-70
2024/02/26 00:30:13;;;;;;;;;;;;;;;6.03;95.62;96084.91;7396730;19;1021;-74
2024/02/26 00:32:41;;;;;;;;;;;;;;;6.03;95.02;96079.72;7396252;19;1044;-74
2024/02/26 00:35:10;;;;;;;;;;;;;;;6.01;94.93;96071.09;7395106;19;1974;-74
2024/02/26 00:37:43;;;;;;;;;;;;;;;5.97;94.89;96079.88;7396406;19;912;-69
2024/02/26 00:40:11;;;;;;;;;;;;;;;5.91;95.07;96073.09;7396509;19;969;-66
2024/02/26 00:42:45;;;;;;;;;;;;;;;5.86;95.45;96077.56;7395840;19;1901;-67
2024/02/26 00:45:13;;;;;;;;;;;;;;;5.80;95.61;96070.78;7395949;19;1084;-72
2024/02/26 00:47:44;;;;;;;;;;;;;;;5.80;95.89;96075.97;7396290;19;1029;-71
2024/02/26 00:50:12;;;;;;;;;;;;;;;5.81;96.96;96064.72;7401913;19;1075;-68
2024/02/26 00:52:43;;;;;;;;;;;;;;;5.84;97.20;96064.63;7403490;19;1920;-72
2024/02/26 00:55:12;;;;;;;;;;;;;;;5.93;98.35;96060.97;7401297;19;1849;-67
2024/02/26 00:57:40;;;;;;;;;;;;;;;5.99;98.78;96060.75;7403397;19;1905;-67
2024/02/26 01:00:10;;;;;;;;;;;;;;;6.07;100.00;96048.47;7403305;19;1786;-69
2024/02/26 01:02:38;;;;;;;;;;;;;;;6.16;100.00;96049.94;7402938;19;1274;-71
2024/02/26 01:05:09;;;;;;;;;;;;;;;6.23;100.00;96045.41;7403225;19;1845;-69
2024/02/26 01:07:37;;;;;;;;;;;;;;;6.12;98.69;96047.47;7402796;19;1025;-69
2024/02/26 01:10:09;;;;;;;;;;;;;;;6.05;97.83;96045.03;7403016;19;1791;-74
2024/02/26 01:12:38;;;;;;;;;;;;;;;6.04;98.20;96045.09;7402639;19;1003;-73
2024/02/26 01:15:08;;;;;;;;;;;;;;;6.08;99.38;96046.69;7401365;19;1842;-68
2024/02/26 01:17:36;;;;;;;;;;;;;;;6.14;98.66;96032.72;7402437;19;1269;-71
2024/02/26 01:20:04;;;;;;;;;;;;;;;6.09;97.99;96038.03;7402409;19;1072;-68
2024/02/26 01:22:33;;;;;;;;;;;;;;;6.11;98.74;96035.41;7402561;19;1818;-72
2024/02/26 01:25:02;;;;;;;;;;;;;;;6.09;99.28;96027.66;7402705;19;976;-65
2024/02/26 01:27:33;;;;;;;;;;;;;;;6.19;100.00;96033.41;7402150;19;1111;-74
2024/02/26 01:30:02;;;;;;;;;;;;;;;6.30;100.00;96033.94;7402149;19;1152;-69
2024/02/26 01:32:31;;;;;;;;;;;;;;;6.40;100.00;96033.69;7402366;19;1035;-68
2024/02/26 01:34:59;;;;;;;;;;;;;;;6.44;98.90;96037.88;7401450;19;1841;-72
2024/02/26 01:37:29;;;;;;;;;;;;;;;6.44;97.76;96032.69;7401992;19;1926;-72
2024/02/26 01:39:58;;;;;;;;;;;;;;;6.43;95.40;96029.25;7402302;19;1060;-75
2024/02/26 01:42:26;;;;;;;;;;;;;;;6.41;94.91;96030.22;7402186;19;973;-68
2024/02/26 01:44:57;;;;;;;;;;;;;;;6.43;94.25;96031.00;7399400;19;1097;-68
2024/02/26 01:47:25;;;;;;;;;;;;;;;6.39;93.93;96027.66;7402101;19;1040;-67
2024/02/26 01:49:54;;;;;;;;;;;;;;;6.40;96.19;96024.16;7401506;19;1040;-70
2024/02/26 01:52:23;;;;;;;;;;;;;;;6.44;96.53;96020.56;7401710;19;964;-64
2024/02/26 01:54:53;;;;;;;;;;;;;;;6.42;96.76;96022.34;7400737;19;1822;-72
2024/02/26 01:57:21;;;;;;;;;;;;;;;6.53;97.93;96016.84;7401385;19;1870;-69
2024/02/26 01:59:49;;;;;;;;;;;;;;;6.53;97.36;96021.19;7400258;19;1804;-64
2024/02/26 02:02:20;;;;;;;;;;;;;;;6.60;96.87;96025.31;7400257;19;1000;-75
2024/02/26 02:04:49;;;;;;;;;;;;;;;6.59;94.63;96027.97;7400960;19;1267;-76
2024/02/26 02:07:18;;;;;;;;;;;;;;;6.57;93.64;96031.44;7401029;19;1793;-74
2024/02/26 02:09:46;;;;;;;;;;;;;;;6.54;93.50;96023.72;7401169;19;1793;-66
2024/02/26 02:12:15;;;;;;;;;;;;;;;6.46;93.76;96025.72;7401110;19;973;-61
2024/02/26 02:14:43;;;;;;;;;;;;;;;6.49;93.70;96017.84;7400664;19;1846;-71
2024/02/26 02:17:12;;;;;;;;;;;;;;;6.45;93.12;96011.88;7400521;19;1127;-75
2024/02/26 02:19:43;;;;;;;;;;;;;;;6.42;93.01;96027.53;7400478;19;1150;-71
2024/02/26 02:22:14;;;;;;;;;;;;;;;6.47;94.78;96018.78;7400315;19;1334;-70
2024/02/26 02:24:42;;;;;;;;;;;;;;;6.45;94.83;96022.25;7400725;19;1008;-74
2024/02/26 02:27:11;;;;;;;;;;;;;;;6.41;94.76;96028.44;7400646;19;1031;-76
2024/02/26 02:29:40;;;;;;;;;;;;;;;6.42;95.57;96014.56;7400408;19;1880;-67
2024/02/26 02:32:09;;;;;;;;;;;;;;;6.32;95.21;96016.59;7400298;19;1952;-68
2024/02/26 02:34:38;;;;;;;;;;;;;;;6.26;94.25;96014.16;7399876;19;1846;-74
2024/02/26 02:37:06;;;;;;;;;;;;;;;6.26;93.83;96019.34;7400123;19;1809;-66
2024/02/26 02:39:38;;;;;;;;;;;;;;;6.19;93.31;96010.03;7400457;19;1757;-72
2024/02/26 02:42:06;;;;;;;;;;;;;;;6.13;93.54;96010.22;7399584;19;1096;-72
2024/02/26 02:44:35;;;;;;;;;;;;;;;6.13;94.79;96008.47;7397948;19;1107;-76
2024/02/26 02:47:03;;;;;;;;;;;;;;;6.17;94.92;96010.09;7399904;19;1013;-69
2024/02/26 02:49:31;;;;;;;;;;;;;;;6.20;94.50;96014.34;7399779;19;2276;-69
2024/02/26 02:52:00;;;;;;;;;;;;;;;6.19;95.38;96007.44;7399393;19;1262;-69
2024/02/26 02:54:29;;;;;;;;;;;;;;;6.20;94.52;96011.75;7399356;19;1842;-67
2024/02/26 02:57:00;;;;;;;;;;;;;;;6.23;95.80;96011.66;7399570;19;1028;-75
2024/02/26 02:59:28;;;;;;;;;;;;;;;6.28;95.15;96012.38;7399543;19;1016;-71
2024/02/26 03:01:57;;;;;;;;;;;;;;;6.29;94.90;96008.03;7398949;19;1032;-65
2024/02/26 03:04:25;;;;;;;;;;;;;;;6.32;95.12;96007.94;7399157;19;1816;-67
2024/02/26 03:06:54;;;;;;;;;;;;;;;6.30;94.94;96013.16;7399140;19;1901;-67
2024/02/26 03:09:22;;;;;;;;;;;;;;;6.34;94.36;96019.13;7398949;19;1917;-66
2024/02/26 03:11:51;;;;;;;;;;;;;;;6.36;93.15;96017.34;7397995;19;1044;-79
2024/02/26 03:14:23;;;;;;;;;;;;;;;6.36;93.01;96014.75;7399024;19;1004;-72
2024/02/26 03:16:51;;;;;;;;;;;;;;;6.29;94.12;96015.84;7398580;19;1259;-75
2024/02/26 03:19:19;;;;;;;;;;;;;;;6.30;94.18;96014.94;7399312;19;1660;-71
2024/02/26 03:21:48;;;;;;;;;;;;;;;6.32;93.97;96015.72;7398827;19;973;-72
2024/02/26 03:24:16;;;;;;;;;;;;;;;6.32;93.83;96011.38;7398650;19;957;-68
2024/02/26 03:26:45;;;;;;;;;;;;;;;6.32;94.10;96014.00;7398604;19;1079;-72
2024/02/26 03:29:13;;;;;;;;;;;;;;;6.27;94.58;96015.88;7398580;19;1782;-65
2024/02/26 03:31:44;;;;;;;;;;;;;;;6.28;94.75;96014.97;7397963;19;1064;-69
2024/02/26 03:34:14;;;;;;;;;;;;;;;6.39;95.14;96024.19;7397967;19;1065;-65
2024/02/26 03:36:42;;;;;;;;;;;;;;;6.41;94.68;96022.41;7396175;19;1853;-67
2024/02/26 03:39:11;;;;;;;;;;;;;;;6.41;94.18;96019.81;7398322;19;1882;-73
2024/02/26 03:41:39;;;;;;;;;;;;;;;6.38;93.77;96012.13;7398345;19;1067;-70
2024/02/26 03:44:08;;;;;;;;;;;;;;;6.32;94.17;96007.94;7396643;19;1137;-68
2024/02/26 03:46:36;;;;;;;;;;;;;;;6.35;94.55;96007.84;7397649;19;965;-65
2024/02/26 03:49:07;;;;;;;;;;;;;;;6.39;94.01;96014.66;7397514;19;1008;-73
2024/02/26 03:51:36;;;;;;;;;;;;;;;6.40;93.78;96015.50;7397806;19;1036;-73
2024/02/26 03:54:04;;;;;;;;;;;;;;;6.41;93.25;96018.06;7397386;19;1037;-72
2024/02/26 03:56:33;;;;;;;;;;;;;;;6.43;93.60;96012.81;7396164;19;1850;-71
2024/02/26 03:59:02;;;;;;;;;;;;;;;6.40;93.54;96008.56;7397208;19;1020;-71
2024/02/26 04:01:30;;;;;;;;;;;;;;;6.41;93.89;96010.25;7397499;19;952;-73
2024/02/26 04:03:59;;;;;;;;;;;;;;;6.42;93.96;96008.53;7397317;19;1789;-71
2024/02/26 04:06:30;;;;;;;;;;;;;;;6.41;93.28;96006.84;7397474;19;1044;-66
2024/02/26 04:08:58;;;;;;;;;;;;;;;6.36;93.16;96013.91;7397404;19;957;-73
2024/02/26 04:11:27;;;;;;;;;;;;;;;6.30;93.40;96015.75;7397335;19;957;-70
2024/02/26 04:13:56;;;;;;;;;;;;;;;6.36;94.12;96016.50;7396816;19;1047;-75
2024/02/26 04:16:25;;;;;;;;;;;;;;;6.36;94.77;96022.56;7395468;19;1850;-72
2024/02/26 04:18:54;;;;;;;;;;;;;;;6.38;95.06;96022.50;7397128;19;1036;-72
2024/02/26 04:21:23;;;;;;;;;;;;;;;6.37;94.94;96021.66;7397017;19;1068;-67
2024/02/26 04:23:55;;;;;;;;;;;;;;;6.33;94.09;96014.84;7398919;19;956;-71
2024/02/26 04:26:23;;;;;;;;;;;;;;;6.33;93.82;96017.44;7404072;19;1396;-77
2024/02/26 04:28:52;;;;;;;;;;;;;;;6.29;93.11;96014.06;7404073;19;1135;-73
2024/02/26 04:31:21;;;;;;;;;;;;;;;6.29;92.69;96018.44;7404148;19;1084;-64
2024/02/26 04:33:49;;;;;;;;;;;;;;;6.21;93.11;96012.59;7404352;19;1910;-72
2024/02/26 04:36:18;;;;;;;;;;;;;;;6.08;93.20;96015.53;7402271;19;1900;-74
2024/02/26 04:38:47;;;;;;;;;;;;;;;6.08;94.39;96007.75;7404204;19;1012;-69
2024/02/26 04:41:18;;;;;;;;;;;;;;;6.10;94.13;96012.91;7404073;19;1115;-68
2024/02/26 04:43:46;;;;;;;;;;;;;;;5.99;94.28;96013.19;7402228;19;1115;-71
2024/02/26 04:46:15;;;;;;;;;;;;;;;5.98;93.90;96017.53;7404093;19;1008;-69
2024/02/26 04:48:45;;;;;;;;;;;;;;;5.99;93.68;96013.19;7403476;19;1154;-69
2024/02/26 04:51:14;;;;;;;;;;;;;;;5.90;94.45;96003.91;7403460;19;1029;-65
2024/02/26 04:53:42;;;;;;;;;;;;;;;5.86;94.63;96000.53;7403369;19;1052;-70
2024/02/26 04:56:11;;;;;;;;;;;;;;;5.79;95.22;95999.03;7401711;19;1842;-66
2024/02/26 04:58:42;;;;;;;;;;;;;;;5.83;95.47;95995.44;7403126;19;1055;-70
2024/02/26 05:01:12;;;;;;;;;;;;;;;5.82;95.60;96002.34;7403044;19;1040;-69
2024/02/26 05:03:40;;;;;;;;;;;;;;;5.91;95.42;96003.88;7403796;19;1757;-63
2024/02/26 05:06:09;;;;;;;;;;;;;;;5.97;96.19;96010.63;7402878;19;1048;-72
2024/02/26 05:08:38;;;;;;;;;;;;;;;6.00;96.09;96015.75;7403235;19;1033;-70
2024/02/26 05:11:07;;;;;;;;;;;;;;;6.03;96.08;96007.00;7403257;19;1001;-66
2024/02/26 05:13:35;;;;;;;;;;;;;;;6.05;95.25;96015.66;7402775;19;1041;-72
2024/02/26 05:16:07;;;;;;;;;;;;;;;5.96;95.09;96021.06;7401712;19;1916;-75
2024/02/26 05:18:36;;;;;;;;;;;;;;;5.95;96.32;96028.00;7402950;19;1020;-73
2024/02/26 05:21:06;;;;;;;;;;;;;;;5.96;95.52;96021.91;7402688;19;1895;-74
2024/02/26 05:23:35;;;;;;;;;;;;;;;6.02;95.04;96026.09;7402375;19;1128;-68
2024/02/26 05:26:04;;;;;;;;;;;;;;;6.06;94.30;96018.19;7402238;19;1045;-73
2024/02/26 05:28:32;;;;;;;;;;;;;;;6.04;94.35;96022.59;7402259;19;1056;-70
2024/02/26 05:31:01;;;;;;;;;;;;;;;6.07;94.92;96021.63;7402449;19;870;-71
2024/02/26 05:33:32;;;;;;;;;;;;;;;6.11;95.08;96019.81;7402047;19;1044;-68
2024/02/26 05:36:03;;;;;;;;;;;;;;;6.15;94.95;96024.88;7401246;19;1857;-67
2024/02/26 05:38:32;;;;;;;;;;;;;;;6.21;95.48;96042.03;7402138;19;954;-71
2024/02/26 05:41:01;;;;;;;;;;;;;;;6.27;95.60;96054.00;7402349;19;1021;-73
2024/02/26 05:43:30;;;;;;;;;;;;;;;6.29;95.19;96060.84;7400911;19;1902;-72
2024/02/26 05:46:01;;;;;;;;;;;;;;;6.29;94.59;96063.44;7399125;19;1024;-70
2024/02/26 05:48:32;;;;;;;;;;;;;;;6.28;95.40;96060.88;7401489;19;1064;-67
2024/02/26 05:51:01;;;;;;;;;;;;;;;6.25;96.13;96066.16;7401403;19;1021;-71
2024/02/26 05:53:29;;;;;;;;;;;;;;;6.27;98.16;96065.25;7401809;19;1018;-70
2024/02/26 05:55:58;;;;;;;;;;;;;;;6.35;99.25;96067.59;7400734;19;1850;-72
2024/02/26 05:58:26;;;;;;;;;;;;;;;6.38;100.00;96067.50;7401620;19;976;-70
2024/02/26 06:00:55;;;;;;;;;;;;;;;6.50;100.00;96066.31;7401568;19;1068;-71
2024/02/26 06:03:23;;;;;;;;;;;;;;;6.57;100.00;96075.63;7401708;19;1024;-65
2024/02/26 06:05:54;;;;;;;;;;;;;;;6.72;100.00;96067.41;7401625;19;1059;-69
2024/02/26 06:08:23;;;;;;;;;;;;;;;6.77;100.00;96061.19;7401004;19;1131;-68
2024/02/26 06:10:51;;;;;;;;;;;;;;;6.87;100.00;96064.38;7401591;19;1651;-69
2024/02/26 06:13:20;;;;;;;;;;;;;;;7.00;100.00;96069.16;7400801;19;985;-74
2024/02/26 06:15:49;;;;;;;;;;;;;;;7.11;100.00;96068.84;7400601;19;1846;-76
2024/02/26 06:18:17;;;;;;;;;;;;;;;7.19;100.00;96074.63;7401028;19;1016;-70
2024/02/26 06:20:46;;;;;;;;;;;;;;;7.29;100.00;96073.44;7400371;19;1135;-67
2024/02/26 06:23:17;;;;;;;;;;;;;;;7.35;99.93;96072.41;7400867;19;1056;-66
2024/02/26 06:25:47;;;;;;;;;;;;;;;7.46;99.92;96074.63;7400287;19;1092;-74
2024/02/26 06:28:15;;;;;;;;;;;;;;;7.57;99.64;96072.56;7401102;19;1392;-65
2024/02/26 06:30:44;;;;;;;;;;;;;;;7.67;99.53;96080.03;7400363;19;1795;-71
2024/02/26 06:33:12;;;;;;;;;;;;;;;7.77;98.87;96085.78;7400512;19;1031;-73
2024/02/26 06:35:43;;;;;;;;;;;;;;;7.82;97.97;96089.06;7399778;19;1814;-66
2024/02/26 06:38:13;;;;;;;;;;;;;;;7.86;98.01;96095.91;7399915;19;1103;-66
2024/02/26 06:40:44;;;;;;;;;;;;;;;7.94;97.47;96091.25;7400210;19;1075;-69
2024/02/26 06:43:13;;;;;;;;;;;;;;;7.99;97.21;96093.72;7398797;19;1840;-75
2024/02/26 06:45:41;;;;;;;;;;;;;;;8.09;96.86;96097.69;7400070;19;949;-67
2024/02/26 06:48:10;;;;;;;;;;;;;;;8.19;95.79;96082.56;7398624;19;1041;-69
2024/02/26 06:50:38;;;;;;;;;;;;;;;8.30;95.60;96091.75;7399407;19;1130;-76
2024/02/26 06:53:07;;;;;;;;;;;;;;;8.37;94.62;96084.59;7400163;19;1717;-68
2024/02/26 06:55:37;;;;;;;;;;;;;;;8.44;94.13;96092.13;7399265;19;1206;-75
2024/02/26 06:58:08;;;;;;;;;;;;;;;8.51;93.41;96089.28;7397267;19;1854;-68
2024/02/26 07:00:36;;;;;;;;;;;;;;;8.58;92.83;96089.03;7399553;19;1043;-70
2024/02/26 07:03:05;;;;;;;;;;;;;;;8.66;92.51;96090.50;7399534;19;953;-70
2024/02/26 07:05:34;;;;;;;;;;;;;;;8.71;92.38;96091.19;7398911;19;1115;-67
2024/02/26 07:08:02;;;;;;;;;;;;;;;8.74;92.49;96091.06;7399352;19;1899;-69
2024/02/26 07:10:30;;;;;;;;;;;;;;;8.78;92.01;96086.56;7399343;19;1047;-71
2024/02/26 07:12:59;;;;;;;;;;;;;;;8.86;91.61;96092.38;7399193;19;1804;-74
2024/02/26 07:15:30;;;;;;;;;;;;;;;8.93;91.31;96086.00;7398908;19;1885;-72
2024/02/26 07:18:02;;;;;;;;;;;;;;;8.98;91.10;96091.88;7397026;19;1952;-76
2024/02/26 07:20:31;;;;;;;;;;;;;;;9.04;91.49;96082.13;7398961;19;966;-70
2024/02/26 07:23:00;;;;;;;;;;;;;;;9.11;91.51;96094.00;7398321;19;1120;-66
2024/02/26 07:25:28;;;;;;;;;;;;;;;9.09;92.02;96082.78;7398563;19;1803;-73
2024/02/26 07:27:56;;;;;;;;;;;;;;;9.17;92.47;96082.47;7398369;19;2114;-75
2024/02/26 07:30:25;;;;;;;;;;;;;;;9.20;91.85;96084.97;7398693;19;1633;-71
2024/02/26 07:32:56;;;;;;;;;;;;;;;9.26;91.42;96083.88;7397978;19;1126;-66
2024/02/26 07:35:25;;;;;;;;;;;;;;;9.23;91.59;96090.06;7398031;19;1032;-69
2024/02/26 07:37:53;;;;;;;;;;;;;;;9.18;91.58;96086.81;7396929;19;1838;-65
2024/02/26 07:40:22;;;;;;;;;;;;;;;9.28;92.39;96095.97;7398171;19;1818;-71
2024/02/26 07:42:50;;;;;;;;;;;;;;;9.35;92.20;96092.19;7397627;19;1111;-67
2024/02/26 07:45:19;;;;;;;;;;;;;;;9.44;91.17;96098.81;7397659;19;1135;-67
2024/02/26 07:47:48;;;;;;;;;;;;;;;9.49;90.55;96090.78;7397655;19;1071;-66
2024/02/26 07:50:19;;;;;;;;;;;;;;;9.50;90.48;96089.00;7397534;19;1834;-69
2024/02/26 07:52:48;;;;;;;;;;;;;;;9.51;89.67;96085.50;7397948;19;954;-73
2024/02/26 07:55:16;;;;;;;;;;;;;;;9.61;89.80;96082.44;7397338;19;1159;-74
2024/02/26 07:57:45;;;;;;;;;;;;;;;9.68;89.73;96083.03;7394732;19;1837;-66
2024/02/26 08:00:16;;;;;;;;;;;;;;;9.79;88.90;96092.19;7396403;19;1825;-69
2024/02/26 08:02:45;;;;;;;;;;;;;;;9.88;88.41;96083.97;7397615;19;1068;-72
2024/02/26 08:05:13;;;;;;;;;;;;;;;9.96;87.95;96083.63;7397494;19;980;-71
2024/02/26 08:07:44;;;;;;;;;;;;;;;10.03;87.92;96092.06;7397088;19;1021;-67
2024/02/26 08:10:13;;;;;;;;;;;;;;;10.10;87.55;96080.41;7396935;19;1080;-72
2024/02/26 08:12:42;;;;;;;;;;;;;;;10.22;87.83;96082.50;7397584;19;992;-67
2024/02/26 08:15:11;;;;;;;;;;;;;;;10.34;87.24;96081.13;7397149;19;1814;-68
2024/02/26 08:17:39;;;;;;;;;;;;;;;10.51;87.00;96091.75;7395620;19;1849;-70
2024/02/26 08:20:09;;;;;;;;;;;;;;;10.57;86.90;96081.03;7397174;19;968;-65
2024/02/26 08:22:39;;;;;;;;;;;;;;;10.71;85.55;96088.22;7396501;19;1816;-66
2024/02/26 08:25:10;;;;;;;;;;;;;;;10.89;85.25;96088.31;7396575;19;1029;-66
2024/02/26 08:27:39;;;;;;;;;;;;;;;11.02;84.22;96099.91;7396608;19;1024;-72
2024/02/26 08:30:08;;;;;;;;;;;;;;;11.20;82.82;96086.88;7397263;19;1661;-71
2024/02/26 08:32:37;;;;;;;;;;;;;;;11.37;81.87;96099.13;7396514;19;1119;-66
2024/02/26 08:35:06;;;;;;;;;;;;;;;11.50;80.89;96095.00;7396687;19;1025;-72
2024/02/26 08:37:34;;;;;;;;;;;;;;;11.63;81.30;96097.84;7395399;19;1850;-71
2024/02/26 08:40:03;;;;;;;;;;;;;;;11.81;80.60;96092.66;7396628;19;989;-73
2024/02/26 08:42:35;;;;;;;;;;;;;;;12.01;78.50;96094.25;7395866;19;1119;-68
2024/02/26 08:45:03;;;;;;;;;;;;;;;12.18;74.48;96091.72;7395998;19;1563;-73
2024/02/26 08:47:32;;;;;;;;;;;;;;;12.30;70.61;96093.72;7396090;19;1104;-66
2024/02/26 08:50:00;;;;;;;;;;;;;;;12.47;69.48;96089.34;7395967;19;1012;-71
2024/02/26 08:52:29;;;;;;;;;;;;;;;12.58;68.38;96092.25;7396286;19;1800;-76
2024/02/26 08:54:57;;;;;;;;;;;;;;;12.75;68.04;96093.13;7396198;19;953;-71
2024/02/26 08:57:26;;;;;;;;;;;;;;;12.85;64.05;96096.94;7395226;19;1850;-75
2024/02/26 08:59:57;;;;;;;;;;;;;;;13.01;66.99;96093.50;7395704;19;1021;-74
2024/02/26 09:02:26;;;;;;;;;;;;;;;13.11;60.80;96099.94;7395641;19;1092;-67
2024/02/26 09:04:55;;;;;;;;;;;;;;;13.16;60.08;96096.19;7395519;19;1071;-75
2024/02/26 09:07:23;;;;;;;;;;;;;;;13.23;59.25;96085.28;7395909;19;1043;-68
2024/02/26 09:09:51;;;;;;;;;;;;;;;13.31;58.79;96092.72;7397543;19;1928;-70
2024/02/26 09:12:21;;;;;;;;;;;;;;;13.36;57.31;96093.28;7403106;19;2079;-68
2024/02/26 09:14:49;;;;;;;;;;;;;;;13.48;58.06;96081.25;7403138;19;1059;-65
2024/02/26 09:17:20;;;;;;;;;;;;;;;13.69;56.59;96077.50;7401635;19;1962;-69
2024/02/26 09:19:48;;;;;;;;;;;;;;;13.92;57.31;96073.53;7402523;19;940;-74
2024/02/26 09:22:17;;;;;;;;;;;;;;;14.18;56.71;96076.38;7402471;19;1052;-73
2024/02/26 09:24:45;;;;;;;;;;;;;;;14.39;55.60;96074.25;7402875;19;988;-71
2024/02/26 09:27:14;;;;;;;;;;;;;;;14.68;54.45;96072.53;7402893;19;1064;-75
2024/02/26 09:29:42;;;;;;;;;;;;;;;14.94;53.81;96076.22;7402753;19;1032;-69
2024/02/26 09:32:32;;;;;;;;;;;;;;;15.13;50.69;96073.25;7401908;19;1917;-66
2024/02/26 09:35:03;;;;;;;;;;;;;;;15.45;50.15;96071.28;7402009;19;1037;-70
2024/02/26 09:37:32;;;;;;;;;;;;;;;15.74;49.04;96068.53;7401360;19;1841;-65
2024/02/26 09:40:00;;;;;;;;;;;;;;;16.00;48.24;96053.59;7402330;19;1032;-70
2024/02/26 09:42:29;;;;;;;;;;;;;;;16.29;47.04;96053.38;7402291;19;1020;-72
2024/02/26 09:44:59;;;;;;;;;;;;;;;16.47;46.19;96047.81;7401695;19;1033;-69
2024/02/26 09:47:29;;;;;;;;;;;;;;;16.54;49.53;96046.44;7401644;19;1001;-72
2024/02/26 09:49:59;;;;;;;;;;;;;;;16.65;50.70;96050.94;7401778;19;1791;-69
2024/02/26 09:52:31;;;;;;;;;;;;;;;16.76;44.43;96044.03;7401884;19;919;-68
2024/02/26 09:54:59;;;;;;;;;;;;;;;16.76;43.23;96042.25;7401743;19;1009;-74
2024/02/26 09:57:28;;;;;;;;;;;;;;;16.86;43.90;96045.06;7400732;19;1842;-70
2024/02/26 10:00:03;;;;;;;;;;;;;;;16.94;44.31;96044.53;7401576;19;1724;-73
2024/02/26 10:02:32;;;;;;;;;;;;;;;16.92;43.84;96041.19;7401178;19;1025;-76
2024/02/26 10:05:02;;;;;;;;;;;;;;;16.86;43.07;96034.50;7401380;19;993;-75
2024/02/26 10:07:33;;;;;;;;;;;;;;;16.88;44.50;96032.63;7401336;19;1047;-69
2024/02/26 10:10:01;;;;;;;;;;;;;;;16.93;43.44;96037.56;7400954;19;1243;-70
2024/02/26 10:12:32;;;;;;;;;;;;;;;16.87;40.67;96027.44;7401109;19;1793;-69
2024/02/26 10:15:00;;;;;;;;;;;;;;;16.86;40.15;96017.84;7400686;19;1021;-70
2024/02/26 10:17:29;;;;;;;;;;;;;;;16.87;40.42;96014.25;7400285;19;1849;-72
2024/02/26 10:20:12;;;;;;;;;;;;;;;16.82;36.96;96009.28;7400918;19;1012;-71
2024/02/26 10:22:44;;;;;;;;;;;;;;;16.72;38.02;96001.19;7398268;19;1099;-66
2024/02/26 10:25:12;;;;;;;;;;;;;;;16.73;37.23;96000.22;7400825;19;1018;-70
2024/02/26 10:27:42;;;;;;;;;;;;;;;16.73;38.76;95999.38;7400709;19;996;-71
2024/02/26 10:30:19;;;;;;;;;;;;;;;16.70;36.36;95989.88;7400150;19;1128;-70
2024/02/26 10:32:48;;;;;;;;;;;;;;;16.59;34.93;96000.38;7400051;19;1135;-69
2024/02/26 10:35:17;;;;;;;;;;;;;;;16.53;35.56;95993.75;7399962;19;1017;-68
2024/02/26 10:37:48;;;;;;;;;;;;;;;16.48;37.25;95993.19;7399132;19;1850;-65
2024/02/26 10:40:18;;;;;;;;;;;;;;;16.38;35.21;95982.47;7400295;19;948;-68
2024/02/26 10:42:46;;;;;;;;;;;;;;;16.35;34.50;95987.97;7399547;19;1804;-65
2024/02/26 10:45:15;;;;;;;;;;;;;;;16.38;35.69;95987.75;7399728;19;1028;-66
2024/02/26 10:47:44;;;;;;;;;;;;;;;16.44;35.76;95989.09;7399562;19;1064;-71
2024/02/26 10:50:16;;;;;;;;;;;;;;;16.53;34.42;95986.63;7399530;19;1191;-68
2024/02/26 10:52:45;;;;;;;;;;;;;;;16.53;34.11;95986.63;7400031;19;1024;-72
2024/02/26 10:55:18;;;;;;;;;;;;;;;16.57;34.69;95979.38;7399426;19;1146;-71
2024/02/26 10:57:47;;;;;;;;;;;;;;;16.61;34.59;95972.03;7398626;19;1840;-70
2024/02/26 11:00:16;;;;;;;;;;;;;;;16.59;35.69;95972.19;7399530;19;1811;-71
2024/02/26 11:02:47;;;;;;;;;;;;;;;16.67;35.82;95959.25;7400033;19;1637;-73
2024/02/26 11:05:16;;;;;;;;;;;;;;;16.70;34.99;95960.84;7399046;19;1086;-66
2024/02/26 11:07:46;;;;;;;;;;;;;;;16.76;35.31;95955.13;7399446;19;1036;-72
2024/02/26 11:10:18;;;;;;;;;;;;;;;16.83;34.71;95960.81;7399255;19;1035;-68
2024/02/26 11:12:47;;;;;;;;;;;;;;;16.88;38.55;95956.03;7399250;19;960;-68
2024/02/26 11:15:16;;;;;;;;;;;;;;;16.93;38.51;95956.53;7398640;19;1111;-70
2024/02/26 11:17:45;;;;;;;;;;;;;;;17.05;38.87;95953.94;7398438;19;1917;-65
2024/02/26 11:20:15;;;;;;;;;;;;;;;17.12;38.63;95952.56;7398470;19;1079;-63
2024/02/26 11:22:43;;;;;;;;;;;;;;;17.10;38.89;95951.00;7398759;19;1815;-68
2024/02/26 11:25:12;;;;;;;;;;;;;;;16.99;39.97;95943.81;7398378;19;1025;-75
2024/02/26 11:27:46;;;;;;;;;;;;;;;17.03;39.18;95951.41;7398259;19;1103;-73
2024/02/26 11:30:16;;;;;;;;;;;;;;;17.05;40.52;95946.03;7398662;19;1035;-69
2024/02/26 11:32:46;;;;;;;;;;;;;;;17.03;41.85;95954.06;7397672;19;1044;-71
2024/02/26 11:35:16;;;;;;;;;;;;;;;16.97;42.13;95951.00;7398013;19;1151;-68
2024/02/26 11:37:53;;;;;;;;;;;;;;;16.87;42.14;95943.78;7398028;19;1841;-71
2024/02/26 11:40:22;;;;;;;;;;;;;;;16.87;42.21;95949.06;7397826;19;1135;-72
2024/02/26 11:42:53;;;;;;;;;;;;;;;16.78;42.99;95947.09;7397369;19;1095;-68
2024/02/26 11:45:37;;;;;;;;;;;;;;;16.76;44.24;95949.84;7398169;19;966;-72
2024/02/26 11:48:05;;;;;;;;;;;;;;;16.74;44.64;95943.81;7397671;19;1013;-66
2024/02/26 11:50:38;;;;;;;;;;;;;;;16.52;44.59;95941.88;7397519;19;1828;-75
2024/02/26 11:53:22;;;;;;;;;;;;;;;16.45;45.45;95946.75;7397677;19;1976;-70
2024/02/26 11:55:51;;;;;;;;;;;;;;;16.45;45.57;95944.13;7397382;19;1096;-70
2024/02/26 11:58:22;;;;;;;;;;;;;;;16.57;46.44;95941.53;7397016;19;1837;-64
2024/02/26 12:00:50;;;;;;;;;;;;;;;16.60;44.99;95941.31;7397185;19;1092;-69
2024/02/26 12:03:19;;;;;;;;;;;;;;;16.60;46.00;95936.91;7397466;19;1907;-66
2024/02/26 12:05:47;;;;;;;;;;;;;;;16.64;45.79;95943.66;7397513;19;972;-69
2024/02/26 12:08:18;;;;;;;;;;;;;;;16.71;46.63;95948.47;7397395;19;1896;-69
2024/02/26 12:10:48;;;;;;;;;;;;;;;16.77;45.79;95942.75;7397469;19;964;-72
2024/02/26 12:13:19;;;;;;;;;;;;;;;16.82;45.89;95939.78;7396909;19;1080;-70
2024/02/26 12:15:59;;;;;;;;;;;;;;;16.95;44.55;95935.28;7396753;19;1025;-67
2024/02/26 12:18:29;;;;;;;;;;;;;;;16.99;44.33;95936.75;7395949;19;1861;-70
2024/02/26 12:21:02;;;;;;;;;;;;;;;16.90;43.92;95940.06;7396705;19;1029;-73
2024/02/26 12:23:30;;;;;;;;;;;;;;;16.82;44.37;95935.34;7396785;19;1029;-68
2024/02/26 12:26:01;;;;;;;;;;;;;;;16.82;44.26;95943.25;7396551;19;913;-68
2024/02/26 12:28:30;;;;;;;;;;;;;;;16.72;42.36;95951.03;7396547;19;1115;-70
2024/02/26 12:31:01;;;;;;;;;;;;;;;16.49;41.88;95958.78;7396941;19;944;-70
2024/02/26 12:33:30;;;;;;;;;;;;;;;16.13;42.55;95960.41;7396346;19;1064;-68
2024/02/26 12:35:59;;;;;;;;;;;;;;;15.82;45.47;95958.09;7396272;19;1221;-70
2024/02/26 12:38:30;;;;;;;;;;;;;;;15.64;47.26;95955.78;7395934;19;1834;-68
2024/02/26 12:40:58;;;;;;;;;;;;;;;15.55;48.21;95948.47;7396612;19;961;-73
2024/02/26 12:43:27;;;;;;;;;;;;;;;15.50;49.94;95958.50;7395270;19;1879;-69
2024/02/26 12:45:55;;;;;;;;;;;;;;;15.40;50.58;95956.47;7401710;19;1003;-72
2024/02/26 12:48:27;;;;;;;;;;;;;;;15.33;50.88;95962.25;7403655;19;1072;-69
2024/02/26 12:50:56;;;;;;;;;;;;;;;15.34;50.64;95963.94;7403977;19;1027;-67
2024/02/26 12:53:25;;;;;;;;;;;;;;;15.24;50.64;95966.34;7403901;19;1060;-70
2024/02/26 12:55:51;;;;;;;;;;;;;;;15.23;50.68;95954.13;7403345;19;922;-69
2024/02/26 12:58:20;;;;;;;;;;;;;;;15.32;50.71;95957.94;7402391;19;1857;-69
2024/02/26 13:00:49;;;;;;;;;;;;;;;15.35;49.52;95963.00;7403180;19;1041;-65
2024/02/26 13:03:18;;;;;;;;;;;;;;;15.27;49.52;95953.78;7403614;19;945;-75
2024/02/26 13:05:49;;;;;;;;;;;;;;;15.37;48.64;95948.78;7403070;19;1056;-71
2024/02/26 13:08:20;;;;;;;;;;;;;;;15.40;48.04;95955.63;7402936;19;1251;-65
2024/02/26 13:10:50;;;;;;;;;;;;;;;15.54;47.20;95955.53;7403298;19;1009;-69
2024/02/26 13:13:19;;;;;;;;;;;;;;;15.66;48.02;95953.84;7402775;19;1124;-71
2024/02/26 13:15:48;;;;;;;;;;;;;;;15.81;47.23;95948.50;7403126;19;1052;-75